Observation data for Seagraves on 05/15/2018      Previous  Date  Next       Current Mesonet Observations  Soil Data  Daily Summary Page  Observations in Plain Language
KSGV 150500Z 17012G17KT 23/12 A2994 RMK A01 T02260118  RH  052%=      5-min Rain = 0
KSGV 150505Z 17013KT 23/12 A2995 RMK A01 T02260117  RH  051%=      5-min Rain = 0
KSGV 150510Z 17012KT 23/12 A2995 RMK A01 T02250115  RH  051%=      5-min Rain = 0
KSGV 150515Z 17012KT 22/12 A2995 RMK A01 T02240119  RH  052%=      5-min Rain = 0
KSGV 150520Z 18013KT 22/13 A2995 RMK A01 T02240129  RH  056%=      5-min Rain = 0
KSGV 150525Z 17015KT 23/14 A2995 RMK A01 T02260141  RH  060%=      5-min Rain = 0
KSGV 150530Z 17015G20KT 23/15 A2995 RMK A01 T02270147  RH  062%=      5-min Rain = 0
KSGV 150535Z 17016G21KT 23/15 A2995 RMK A01 T02270151  RH  063%=      5-min Rain = 0
KSGV 150540Z 17015KT 23/15 A2995 RMK A01 T02270153  RH  065%=      5-min Rain = 0
KSGV 150545Z 17014G20KT 23/16 A2996 RMK A01 T02250155  RH  066%=      5-min Rain = 0
KSGV 150550Z 17015KT 22/16 A2995 RMK A01 T02240157  RH  067%=      5-min Rain = 0
KSGV 150555Z 17015KT 22/16 A2996 RMK A01 T02230157  RH  068%=      5-min Rain = 0
KSGV 150600Z 17014KT 22/16 A2996 RMK A01 T02220159  RH  069%=      5-min Rain = 0
KSGV 150605Z 17015KT 22/16 A2996 RMK A01 T02210160  RH  070%=      5-min Rain = 0
KSGV 150610Z 17014G19KT 22/16 A2996 RMK A01 T02200161  RH  071%=      5-min Rain = 0
KSGV 150615Z 16013KT 22/16 A2996 RMK A01 T02190162  RH  071%=      5-min Rain = 0
KSGV 150620Z 17013G18KT 22/16 A2996 RMK A01 T02170162  RH  073%=      5-min Rain = 0
KSGV 150625Z 16014G19KT 22/16 A2996 RMK A01 T02160164  RH  074%=      5-min Rain = 0
KSGV 150630Z 16014KT 22/17 A2997 RMK A01 T02150165  RH  075%=      5-min Rain = 0
KSGV 150635Z 16011KT 21/17 A2996 RMK A01 T02140166  RH  076%=      5-min Rain = 0
KSGV 150640Z 16013KT 21/17 A2996 RMK A01 T02130167  RH  077%=      5-min Rain = 0
KSGV 150645Z 16013KT 21/17 A2996 RMK A01 T02120168  RH  078%=      5-min Rain = 0
KSGV 150650Z 17012KT 21/17 A2996 RMK A01 T02100168  RH  079%=      5-min Rain = 0
KSGV 150655Z 16011KT 21/17 A2996 RMK A01 T02080168  RH  080%=      5-min Rain = 0
KSGV 150700Z 17011KT 21/17 A2996 RMK A01 T02070168  RH  080%=      5-min Rain = 0
KSGV 150705Z 17013KT 21/17 A2996 RMK A01 T02060169  RH  081%=      5-min Rain = 0
KSGV 150710Z 17013KT 21/17 A2996 RMK A01 T02050169  RH  082%=      5-min Rain = 0
KSGV 150715Z 16014KT 20/17 A2996 RMK A01 T02040169  RH  082%=      5-min Rain = 0
KSGV 150720Z 17014G19KT 20/17 A2996 RMK A01 T02030169  RH  083%=      5-min Rain = 0
KSGV 150725Z 17013KT 20/17 A2996 RMK A01 T02020170  RH  083%=      5-min Rain = 0
KSGV 150730Z 16015KT 20/17 A2996 RMK A01 T02020170  RH  084%=      5-min Rain = 0
KSGV 150735Z 16014KT 20/17 A2997 RMK A01 T02010170  RH  084%=      5-min Rain = 0
KSGV 150740Z 16014KT 20/17 A2997 RMK A01 T02010171  RH  085%=      5-min Rain = 0
KSGV 150745Z 16011KT 20/17 A2997 RMK A01 T02000171  RH  086%=      5-min Rain = 0
KSGV 150750Z 16012KT 20/17 A2997 RMK A01 T01990172  RH  086%=      5-min Rain = 0
KSGV 150755Z 16012KT 20/17 A2997 RMK A01 T01990171  RH  086%=      5-min Rain = 0
KSGV 150800Z 16012KT 20/17 A2996 RMK A01 T01970171  RH  087%=      5-min Rain = 0
KSGV 150805Z 16013KT 20/17 A2996 RMK A01 T01970171  RH  087%=      5-min Rain = 0
KSGV 150810Z 16013G18KT 20/17 A2996 RMK A01 T01960171  RH  088%=      5-min Rain = 0
KSGV 150815Z 16012KT 20/17 A2996 RMK A01 T01950171  RH  088%=      5-min Rain = 0
KSGV 150820Z 16013KT 19/17 A2996 RMK A01 T01940171  RH  089%=      5-min Rain = 0
KSGV 150825Z 16012G17KT 19/17 A2996 RMK A01 T01940172  RH  089%=      5-min Rain = 0
KSGV 150830Z 17013KT 19/17 A2996 RMK A01 T01930172  RH  089%=      5-min Rain = 0
KSGV 150835Z 17012KT 19/17 A2996 RMK A01 T01920172  RH  090%=      5-min Rain = 0
KSGV 150840Z 17012KT 19/17 A2996 RMK A01 T01920172  RH  090%=      5-min Rain = 0
KSGV 150845Z 17013G19KT 19/17 A2996 RMK A01 T01910172  RH  091%=      5-min Rain = 0
KSGV 150850Z 17012G17KT 19/17 A2996 RMK A01 T01910173  RH  091%=      5-min Rain = 0
KSGV 150855Z 17013KT 19/17 A2996 RMK A01 T01910173  RH  091%=      5-min Rain = 0
KSGV 150900Z 17012KT 19/17 A2996 RMK A01 T01910172  RH  091%=      5-min Rain = 0
KSGV 150905Z 17012KT 19/17 A2996 RMK A01 T01900172  RH  091%=      5-min Rain = 0
KSGV 150910Z 17011KT 19/17 A2996 RMK A01 T01890171  RH  092%=      5-min Rain = 0
KSGV 150915Z 17011KT 19/17 A2996 RMK A01 T01880171  RH  092%=      5-min Rain = 0
KSGV 150920Z 17010KT 19/17 A2996 RMK A01 T01870170  RH  092%=      5-min Rain = 0
KSGV 150925Z 17009KT 19/17 A2996 RMK A01 T01860170  RH  092%=      5-min Rain = 0
KSGV 150930Z 17010KT 19/17 A2996 RMK A01 T01850170  RH  093%=      5-min Rain = 0
KSGV 150935Z 17009KT 19/17 A2996 RMK A01 T01850169  RH  093%=      5-min Rain = 0
KSGV 150940Z 16010KT 19/17 A2996 RMK A01 T01850170  RH  093%=      5-min Rain = 0
KSGV 150945Z 17010KT 19/17 A2996 RMK A01 T01850170  RH  093%=      5-min Rain = 0
KSGV 150950Z 17010KT 18/17 A2996 RMK A01 T01840170  RH  093%=      5-min Rain = 0
KSGV 150955Z 17009KT 18/17 A2996 RMK A01 T01840170  RH  094%=      5-min Rain = 0
KSGV 151000Z 17009KT 18/17 A2996 RMK A01 T01840170  RH  094%=      5-min Rain = 0
KSGV 151005Z 17009KT 18/17 A2996 RMK A01 T01830170  RH  094%=      5-min Rain = 0
KSGV 151010Z 17009KT 19/17 A2996 RMK A01 T01850172  RH  094%=      5-min Rain = 0
KSGV 151015Z 18010KT 19/17 A2996 RMK A01 T01870173  RH  094%=      5-min Rain = 0
KSGV 151020Z 18010KT 19/17 A2996 RMK A01 T01870173  RH  094%=      5-min Rain = 0
KSGV 151025Z 18010KT 19/17 A2996 RMK A01 T01870173  RH  094%=      5-min Rain = 0
KSGV 151030Z 18010G15KT 19/17 A2996 RMK A01 T01860172  RH  094%=      5-min Rain = 0
KSGV 151035Z 19009KT 18/17 A2996 RMK A01 T01840171  RH  094%=      5-min Rain = 0
KSGV 151040Z 19010KT 18/17 A2996 RMK A01 T01830171  RH  095%=      5-min Rain = 0
KSGV 151045Z 19010KT 18/17 A2996 RMK A01 T01830171  RH  095%=      5-min Rain = 0
KSGV 151050Z 19009KT 18/17 A2996 RMK A01 T01840172  RH  095%=      5-min Rain = 0
KSGV 151055Z 19011KT 19/18 A2996 RMK A01 T01880175  RH  095%=      5-min Rain = 0
KSGV 151100Z 19014G19KT 19/18 A2996 RMK A01 T01910177  RH  094%=      5-min Rain = 0
KSGV 151105Z 19015G20KT 19/18 A2996 RMK A01 T01940178  RH  093%=      5-min Rain = 0
KSGV 151110Z 20015KT 20/18 A2995 RMK A01 T01960179  RH  092%=      5-min Rain = 0
KSGV 151115Z 20013G20KT 20/18 A2995 RMK A01 T01970179  RH  092%=      5-min Rain = 0
KSGV 151120Z 20014G21KT 20/18 A2996 RMK A01 T01980179  RH  091%=      5-min Rain = 0
KSGV 151125Z 20016G21KT 20/18 A2996 RMK A01 T01980179  RH  091%=      5-min Rain = 0
KSGV 151130Z 20016G21KT 20/18 A2996 RMK A01 T01980178  RH  091%=      5-min Rain = 0
KSGV 151135Z 20016KT 20/18 A2996 RMK A01 T01980178  RH  091%=      5-min Rain = 0
KSGV 151140Z 20016KT 20/18 A2996 RMK A01 T01980177  RH  090%=      5-min Rain = 0
KSGV 151145Z 20016KT 20/18 A2997 RMK A01 T01970176  RH  090%=      5-min Rain = 0
KSGV 151150Z 20016G21KT 20/18 A2996 RMK A01 T01960176  RH  090%=      5-min Rain = 0
KSGV 151155Z 21015KT 20/18 A2997 RMK A01 T01960175  RH  090%=      5-min Rain = 0
KSGV 151200Z 21015KT 20/18 A2997 RMK A01 T01950175  RH  090%=      5-min Rain = 0
KSGV 151205Z 20014KT 20/18 A2997 RMK A01 T01950175  RH  091%=      5-min Rain = 0
KSGV 151210Z 21013G19KT 20/18 A2997 RMK A01 T01950176  RH  091%=      5-min Rain = 0
KSGV 151215Z 21013KT 20/18 A2998 RMK A01 T01960176  RH  090%=      5-min Rain = 0
KSGV 151220Z 21015KT 20/18 A2998 RMK A01 T01960175  RH  090%=      5-min Rain = 0
KSGV 151225Z 21014KT 20/18 A2998 RMK A01 T01960175  RH  090%=      5-min Rain = 0
KSGV 151230Z 21012KT 20/18 A2998 RMK A01 T01950175  RH  090%=      5-min Rain = 0
KSGV 151235Z 22010KT 20/18 A2998 RMK A01 T01950175  RH  091%=      5-min Rain = 0
KSGV 151240Z 22010KT 20/18 A2998 RMK A01 T01960176  RH  090%=      5-min Rain = 0
KSGV 151245Z 22010KT 20/18 A2999 RMK A01 T01970176  RH  090%=      5-min Rain = 0
KSGV 151250Z 23009KT 20/18 A2999 RMK A01 T01970176  RH  090%=      5-min Rain = 0
KSGV 151255Z 23008KT 20/18 A2999 RMK A01 T01970176  RH  090%=      5-min Rain = 0
KSGV 151300Z 23009KT 20/18 A2999 RMK A01 T01980177  RH  090%=      5-min Rain = 0
KSGV 151305Z 22009KT 20/18 A2999 RMK A01 T02020179  RH  089%=      5-min Rain = 0
KSGV 151310Z 22010KT 20/18 A2999 RMK A01 T02040179  RH  088%=      5-min Rain = 0
KSGV 151315Z 23011KT 20/18 A2999 RMK A01 T02040179  RH  088%=      5-min Rain = 0
KSGV 151320Z 22011KT 21/18 A2999 RMK A01 T02050180  RH  087%=      5-min Rain = 0
KSGV 151325Z 23012KT 21/18 A30 RMK A01 T02070180  RH  086%=      5-min Rain = 0
KSGV 151330Z 23012KT 21/18 A30 RMK A01 T02100179  RH  085%=      5-min Rain = 0
KSGV 151335Z 23014KT 21/18 A2999 RMK A01 T02120179  RH  084%=      5-min Rain = 0
KSGV 151340Z 22012KT 22/18 A2999 RMK A01 T02150180  RH  082%=      5-min Rain = 0
KSGV 151345Z 23013KT 22/18 A30 RMK A01 T02170179  RH  081%=      5-min Rain = 0
KSGV 151350Z 23012KT 22/18 A30 RMK A01 T02180179  RH  080%=      5-min Rain = 0
KSGV 151355Z 23013KT 22/18 A30 RMK A01 T02220177  RH  078%=      5-min Rain = 0
KSGV 151400Z 23013KT 22/18 A30 RMK A01 T02240177  RH  077%=      5-min Rain = 0
KSGV 151405Z 24014KT 22/17 A30 RMK A01 T02240173  RH  075%=      5-min Rain = 0
KSGV 151410Z 23013KT 23/17 A2999 RMK A01 T02250172  RH  074%=      5-min Rain = 0
KSGV 151415Z 23015KT 23/17 A2999 RMK A01 T02290168  RH  070%=      5-min Rain = 0
KSGV 151420Z 24012KT 23/17 A2999 RMK A01 T02320172  RH  070%=      5-min Rain = 0
KSGV 151425Z 24012KT 23/17 A2999 RMK A01 T02340171  RH  069%=      5-min Rain = 0
KSGV 151430Z 24013KT 24/17 A30 RMK A01 T02380169  RH  067%=      5-min Rain = 0
KSGV 151435Z 25014KT 24/17 A2999 RMK A01 T02380168  RH  066%=      5-min Rain = 0
KSGV 151440Z 24013KT 24/17 A2999 RMK A01 T02410167  RH  065%=      5-min Rain = 0
KSGV 151445Z 24013KT 24/17 A2999 RMK A01 T02440167  RH  063%=      5-min Rain = 0
KSGV 151450Z 24012KT 25/16 A30 RMK A01 T02480164  RH  061%=      5-min Rain = 0
KSGV 151455Z 24012KT 25/16 A30 RMK A01 T02510164  RH  060%=      5-min Rain = 0
KSGV 151500Z 24012KT 25/16 A30 RMK A01 T02540162  RH  058%=      5-min Rain = 0
KSGV 151505Z 24012KT 26/16 A30 RMK A01 T02600160  RH  055%=      5-min Rain = 0
KSGV 151510Z 25013KT 26/16 A30 RMK A01 T02630156  RH  053%=      5-min Rain = 0
KSGV 151515Z 25012KT 27/16 A30 RMK A01 T02680156  RH  051%=      5-min Rain = 0
KSGV 151520Z 24012KT 27/15 A30 RMK A01 T02730152  RH  049%=      5-min Rain = 0
KSGV 151525Z 24012KT 28/15 A30 RMK A01 T02750150  RH  047%=      5-min Rain = 0
KSGV 151530Z 24013KT 28/15 A30 RMK A01 T02770145  RH  045%=      5-min Rain = 0
KSGV 151535Z 24011G16KT 29/15 A30 RMK A01 T02850146  RH  044%=      5-min Rain = 0
KSGV 151540Z 24013KT 29/14 A30 RMK A01 T02880138  RH  041%=      5-min Rain = 0
KSGV 151545Z 25012KT 29/14 A30 RMK A01 T02910137  RH  040%=      5-min Rain = 0
KSGV 151550Z 24011KT 29/14 A30 RMK A01 T02930136  RH  039%=      5-min Rain = 0
KSGV 151555Z 25012KT 30/13 A30 RMK A01 T02950133  RH  038%=      5-min Rain = 0
KSGV 151600Z 25011KT 30/13 A30 RMK A01 T03030126  RH  034%=      5-min Rain = 0
KSGV 151605Z 24011KT 31/12 A30 RMK A01 T03070124  RH  033%=      5-min Rain = 0
KSGV 151610Z 24012KT 31/12 A30 RMK A01 T03140115  RH  030%=      5-min Rain = 0
KSGV 151615Z 25010KT 32/11 A30 RMK A01 T03160110  RH  029%=      5-min Rain = 0
KSGV 151620Z 26010KT 32/11 A30 RMK A01 T03190105  RH  027%=      5-min Rain = 0
KSGV 151625Z 27011G18KT 32/08 A30 RMK A01 T03230084  RH  023%=      5-min Rain = 0
KSGV 151630Z 26010KT 32/08 A30 RMK A01 T03230080  RH  023%=      5-min Rain = 0
KSGV 151635Z 27010KT 33/06 A30 RMK A01 T03300061  RH  019%=      5-min Rain = 0
KSGV 151640Z 27010KT 33/05 A30 RMK A01 T03330052  RH  017%=      5-min Rain = 0
KSGV 151645Z 29011KT 33/06 A30 RMK A01 T03300064  RH  019%=      5-min Rain = 0
KSGV 151650Z 31012G17KT 33/08 A30 RMK A01 T03310082  RH  022%=      5-min Rain = 0
KSGV 151655Z 31011KT 33/07 A30 RMK A01 T03310071  RH  020%=      5-min Rain = 0
KSGV 151700Z 28008G13KT 33/07 A30 RMK A01 T03310067  RH  020%=      5-min Rain = 0
KSGV 151705Z 30010G18KT 33/09 A30 RMK A01 T03300086  RH  023%=      5-min Rain = 0
KSGV 151710Z 33012KT 33/08 A30 RMK A01 T03300079  RH  021%=      5-min Rain = 0
KSGV 151715Z 32012KT 33/08 A30 RMK A01 T03320075  RH  021%=      5-min Rain = 0
KSGV 151720Z 30009KT 33/06 A30 RMK A01 T03320060  RH  019%=      5-min Rain = 0
KSGV 151725Z 31009G14KT 34/07 A30 RMK A01 T03350065  RH  019%=      5-min Rain = 0
KSGV 151730Z 33010G15KT 33/08 A30 RMK A01 T03320076  RH  021%=      5-min Rain = 0
KSGV 151735Z 31010G15KT 33/07 A30 RMK A01 T03310068  RH  020%=      5-min Rain = 0
KSGV 151740Z 34006G11KT 33/06 A30 RMK A01 T03310061  RH  019%=      5-min Rain = 0
KSGV 151745Z 33005G12KT 33/06 A30 RMK A01 T03320057  RH  018%=      5-min Rain = 0
KSGV 151750Z 33012G18KT 34/05 A2999 RMK A01 T03400053  RH  017%=      5-min Rain = 0
KSGV 151755Z 33008G15KT 34/05 A2999 RMK A01 T03380050  RH  017%=      5-min Rain = 0
KSGV 151800Z 36008G14KT 34/05 A2999 RMK A01 T03400047  RH  016%=      5-min Rain = 0
KSGV 151805Z 34011KT 34/04 A2999 RMK A01 T03400042  RH  016%=      5-min Rain = 0
KSGV 151810Z 34009KT 34/04 A2999 RMK A01 T03440044  RH  016%=      5-min Rain = 0
KSGV 151815Z 01008KT 34/04 A2999 RMK A01 T03420038  RH  015%=      5-min Rain = 0
KSGV 151820Z 03007KT 34/03 A2998 RMK A01 T03430033  RH  015%=      5-min Rain = 0
KSGV 151825Z 00006G11KT 34/03 A2998 RMK A01 T03420027  RH  014%=      5-min Rain = 0
KSGV 151830Z 01006KT 34/03 A2998 RMK A01 T03410029  RH  014%=      5-min Rain = 0
KSGV 151835Z 02003KT 34/03 A2998 RMK A01 T03440032  RH  014%=      5-min Rain = 0
KSGV 151840Z 36004KT 35/03 A2998 RMK A01 T03480033  RH  014%=      5-min Rain = 0
KSGV 151845Z 36004KT 35/03 A2998 RMK A01 T03450031  RH  014%=      5-min Rain = 0
KSGV 151850Z 01004G9KT 34/03 A2998 RMK A01 T03370030  RH  015%=      5-min Rain = 0
KSGV 151855Z 35005G10KT 34/03 A2998 RMK A01 T03440033  RH  014%=      5-min Rain = 0
KSGV 151900Z 30010G17KT 34/03 A2997 RMK A01 T03380028  RH  014%=      5-min Rain = 0
KSGV 151905Z 32010G17KT 35/03 A2997 RMK A01 T03450026  RH  014%=      5-min Rain = 0
KSGV 151910Z 28004KT 35/02 A2997 RMK A01 T03500021  RH  013%=      5-min Rain = 0
KSGV 151915Z 21002KT 35/02 A2997 RMK A01 T03480018  RH  013%=      5-min Rain = 0
KSGV 151920Z 16003KT 35/02 A2997 RMK A01 T03470018  RH  013%=      5-min Rain = 0
KSGV 151925Z 11004G9KT 34/02 A2997 RMK A01 T03430019  RH  013%=      5-min Rain = 0
KSGV 151930Z 04002KT 34/02 A2997 RMK A01 T03350015  RH  013%=      5-min Rain = 0
KSGV 151935Z 33003G11KT 34/02 A2997 RMK A01 T03350023  RH  014%=      5-min Rain = 0
KSGV 151940Z 32011KT 33/03 A2996 RMK A01 T03300034  RH  016%=      5-min Rain = 0
KSGV 151945Z 30004G11KT 33/03 A2996 RMK A01 T03270030  RH  016%=      5-min Rain = 0
KSGV 151950Z 28002KT 33/03 A2996 RMK A01 T03270034  RH  016%=      5-min Rain = 0
KSGV 151955Z 01002KT 33/04 A2996 RMK A01 T03310038  RH  016%=      5-min Rain = 0
KSGV 152000Z 03006G14KT 34/04 A2996 RMK A01 T03440044  RH  016%=      5-min Rain = 0
KSGV 152005Z 04006G11KT 34/03 A2996 RMK A01 T03430030  RH  014%=      5-min Rain = 0
KSGV 152010Z 02003KT 34/04 A2995 RMK A01 T03410035  RH  015%=      5-min Rain = 0
KSGV 152015Z 03002KT 34/03 A2995 RMK A01 T03370034  RH  015%=      5-min Rain = 0
KSGV 152020Z 02006G11KT 35/04 A2995 RMK A01 T03480041  RH  015%=      5-min Rain = 0
KSGV 152025Z 01005KT 35/04 A2995 RMK A01 T03490039  RH  015%=      5-min Rain = 0
KSGV 152030Z 35003G8KT 35/04 A2994 RMK A01 T03500039  RH  015%=      5-min Rain = 0
KSGV 152035Z 03006G11KT 36/04 A2994 RMK A01 T03560038  RH  014%=      5-min Rain = 0
KSGV 152040Z 36007G15KT 35/04 A2994 RMK A01 T03530040  RH  014%=      5-min Rain = 0
KSGV 152045Z 00012KT 35/04 A2994 RMK A01 T03500041  RH  015%=      5-min Rain = 0
KSGV 152050Z 35011KT 35/04 A2993 RMK A01 T03450039  RH  015%=      5-min Rain = 0
KSGV 152055Z 35011KT 34/04 A2993 RMK A01 T03410039  RH  015%=      5-min Rain = 0
KSGV 152100Z 33010KT 33/04 A2993 RMK A01 T03320038  RH  016%=      5-min Rain = 0
KSGV 152105Z 35010KT 33/04 A2994 RMK A01 T03310041  RH  016%=      5-min Rain = 0
KSGV 152110Z 35011G16KT 33/04 A2994 RMK A01 T03260040  RH  017%=      5-min Rain = 0
KSGV 152115Z 35012G20KT 32/04 A2994 RMK A01 T03230038  RH  017%=      5-min Rain = 0
KSGV 152120Z 33017G23KT 32/04 A2993 RMK A01 T03210040  RH  017%=      5-min Rain = 0
KSGV 152125Z 35017G22KT 33/05 A2993 RMK A01 T03290049  RH  018%=      5-min Rain = 0
KSGV 152130Z 36020G28KT 33/05 A2992 RMK A01 T03340048  RH  017%=      5-min Rain = 0
KSGV 152135Z 01017G24KT 33/05 A2992 RMK A01 T03300045  RH  017%=      5-min Rain = 0
KSGV 152140Z 01013G19KT 33/04 A2992 RMK A01 T03340040  RH  016%=      5-min Rain = 0
KSGV 152145Z 01013G18KT 34/03 A2991 RMK A01 T03370034  RH  015%=      5-min Rain = 0
KSGV 152150Z 36014G19KT 33/03 A2991 RMK A01 T03320029  RH  015%=      5-min Rain = 0
KSGV 152155Z 35013KT 33/03 A2991 RMK A01 T03280028  RH  015%=      5-min Rain = 0
KSGV 152200Z 01010KT 34/03 A2991 RMK A01 T03390034  RH  015%=      5-min Rain = 0
KSGV 152205Z 35010KT 35/03 A2991 RMK A01 T03490029  RH  014%=      5-min Rain = 0
KSGV 152210Z 35010G15KT 34/03 A2991 RMK A01 T03430028  RH  014%=      5-min Rain = 0
KSGV 152215Z 32012G18KT 34/02 A2991 RMK A01 T03410022  RH  014%=      5-min Rain = 0
KSGV 152220Z 34011G17KT 35/02 A2991 RMK A01 T03500021  RH  013%=      5-min Rain = 0
KSGV 152225Z 33017G24KT 35/02 A299 RMK A01 T03460024  RH  013%=      5-min Rain = 0
KSGV 152230Z 33013KT 34/03 A299 RMK A01 T03440025  RH  014%=      5-min Rain = 0
KSGV 152235Z 33015G21KT 34/03 A299 RMK A01 T03440026  RH  014%=      5-min Rain = 0
KSGV 152240Z 34013KT 34/02 A299 RMK A01 T03390021  RH  014%=      5-min Rain = 0
KSGV 152245Z 35012G17KT 34/02 A299 RMK A01 T03390018  RH  013%=      5-min Rain = 0
KSGV 152250Z 35011G16KT 34/02 A299 RMK A01 T03400018  RH  013%=      5-min Rain = 0
KSGV 152255Z 33009KT 34/02 A299 RMK A01 T03400019  RH  013%=      5-min Rain = 0
KSGV 152300Z 32007KT 34/02 A299 RMK A01 T03430019  RH  013%=      5-min Rain = 0
KSGV 152305Z 32004KT 35/02 A2989 RMK A01 T03460018  RH  013%=      5-min Rain = 0
KSGV 152310Z 31001KT 35/02 A2989 RMK A01 T03470015  RH  012%=      5-min Rain = 0
KSGV 152315Z 29007KT 35/02 A2989 RMK A01 T03490016  RH  012%=      5-min Rain = 0
KSGV 152320Z 29004KT 35/01 A2989 RMK A01 T03450012  RH  012%=      5-min Rain = 0
KSGV 152325Z 32005KT 35/02 A2989 RMK A01 T03460015  RH  013%=      5-min Rain = 0
KSGV 152330Z 30004KT 35/01 A2989 RMK A01 T03460014  RH  012%=      5-min Rain = 0
KSGV 152335Z 29004KT 35/02 A2989 RMK A01 T03460016  RH  013%=      5-min Rain = 0
KSGV 152340Z 28003KT 35/02 A2989 RMK A01 T03480015  RH  012%=      5-min Rain = 0
KSGV 152345Z 29004KT 35/02 A2989 RMK A01 T03460018  RH  013%=      5-min Rain = 0
KSGV 152350Z 32005G10KT 35/02 A2988 RMK A01 T03470021  RH  013%=      5-min Rain = 0
KSGV 152355Z 33005KT 34/02 A2988 RMK A01 T03420018  RH  013%=      5-min Rain = 0
KSGV 160000Z 32006G11KT 34/02 A2988 RMK A01 T03370021  RH  014%=      5-min Rain = 0
KSGV 160005Z 29010KT 34/02 A2988 RMK A01 T03410024  RH  014%=      5-min Rain = 0
KSGV 160010Z 27007KT 34/02 A2988 RMK A01 T03440019  RH  013%=      5-min Rain = 0
KSGV 160015Z 30008KT 34/03 A2988 RMK A01 T03370026  RH  014%=      5-min Rain = 0
KSGV 160020Z 29006KT 33/03 A2988 RMK A01 T03340028  RH  015%=      5-min Rain = 0
KSGV 160025Z 26004KT 34/02 A2988 RMK A01 T03390020  RH  013%=      5-min Rain = 0
KSGV 160030Z 26007KT 34/02 A2988 RMK A01 T03420017  RH  013%=      5-min Rain = 0
KSGV 160035Z 26006KT 34/01 A2989 RMK A01 T03400014  RH  013%=      5-min Rain = 0
KSGV 160040Z 23005KT 34/01 A2989 RMK A01 T03390014  RH  013%=      5-min Rain = 0
KSGV 160045Z 23004KT 34/01 A2989 RMK A01 T03370013  RH  013%=      5-min Rain = 0
KSGV 160050Z 21004KT 34/01 A2989 RMK A01 T03370013  RH  013%=      5-min Rain = 0
KSGV 160055Z 18004KT 34/01 A2989 RMK A01 T03360014  RH  013%=      5-min Rain = 0
KSGV 160100Z 16005KT 33/01 A2989 RMK A01 T03340014  RH  013%=      5-min Rain = 0
KSGV 160105Z 15007KT 33/02 A2989 RMK A01 T03300022  RH  014%=      5-min Rain = 0
KSGV 160110Z 14008KT 33/02 A2989 RMK A01 T03270023  RH  015%=      5-min Rain = 0
KSGV 160115Z 14008KT 32/02 A2989 RMK A01 T03240023  RH  015%=      5-min Rain = 0
KSGV 160120Z 12009G15KT 32/03 A299 RMK A01 T03230029  RH  016%=      5-min Rain = 0
KSGV 160125Z 12016G28KT 30/12 A299 RMK A01 T02990124  RH  035%=      5-min Rain = 0
KSGV 160130Z 12017G26KT 28/13 A2991 RMK A01 T02790131  RH  041%=      5-min Rain = 0
KSGV 160135Z 12017G26KT 27/13 A2991 RMK A01 T02740126  RH  041%=      5-min Rain = 0
KSGV 160140Z 13016G26KT 27/12 A2991 RMK A01 T02720119  RH  039%=      5-min Rain = 0
KSGV 160145Z 13013G22KT 27/12 A2991 RMK A01 T02700118  RH  039%=      5-min Rain = 0
KSGV 160150Z 13014G22KT 27/12 A2991 RMK A01 T02680116  RH  039%=      5-min Rain = 0
KSGV 160155Z 12013G21KT 27/12 A2992 RMK A01 T02660118  RH  040%=      5-min Rain = 0
KSGV 160200Z 12014G19KT 26/12 A2992 RMK A01 T02640120  RH  041%=      5-min Rain = 0
KSGV 160205Z 13011G18KT 26/12 A2992 RMK A01 T02630121  RH  042%=      5-min Rain = 0
KSGV 160210Z 12011G17KT 26/12 A2992 RMK A01 T02610124  RH  043%=      5-min Rain = 0
KSGV 160215Z 13011G17KT 26/13 A2993 RMK A01 T02590126  RH  044%=      5-min Rain = 0
KSGV 160220Z 12010G17KT 26/13 A2993 RMK A01 T02570128  RH  046%=      5-min Rain = 0
KSGV 160225Z 12010G17KT 26/13 A2994 RMK A01 T02550129  RH  046%=      5-min Rain = 0
KSGV 160230Z 12010G17KT 25/13 A2994 RMK A01 T02540129  RH  047%=      5-min Rain = 0
KSGV 160235Z 13010KT 25/13 A2995 RMK A01 T02530129  RH  047%=      5-min Rain = 0
KSGV 160240Z 13009G14KT 25/13 A2995 RMK A01 T02520127  RH  047%=      5-min Rain = 0
KSGV 160245Z 13008G16KT 25/13 A2996 RMK A01 T02500125  RH  047%=      5-min Rain = 0
KSGV 160250Z 14012G18KT 25/12 A2996 RMK A01 T02500118  RH  044%=      5-min Rain = 0
KSGV 160255Z 12008G14KT 25/11 A2996 RMK A01 T02500114  RH  043%=      5-min Rain = 0
KSGV 160300Z 11009G14KT 25/11 A2997 RMK A01 T02490112  RH  043%=      5-min Rain = 0
KSGV 160305Z 10009G14KT 25/11 A2997 RMK A01 T02480111  RH  043%=      5-min Rain = 0
KSGV 160310Z 10008G13KT 25/11 A2997 RMK A01 T02470110  RH  043%=      5-min Rain = 0
KSGV 160315Z 11008KT 25/11 A2998 RMK A01 T02450107  RH  043%=      5-min Rain = 0
KSGV 160320Z 11008KT 25/11 A2998 RMK A01 T02450105  RH  042%=      5-min Rain = 0
KSGV 160325Z 11008KT 24/10 A2998 RMK A01 T02430104  RH  042%=      5-min Rain = 0
KSGV 160330Z 11008KT 24/10 A2998 RMK A01 T02420102  RH  042%=      5-min Rain = 0
KSGV 160335Z 11007KT 24/10 A2998 RMK A01 T02400100  RH  042%=      5-min Rain = 0
KSGV 160340Z 10008G14KT 24/10 A2998 RMK A01 T02400098  RH  041%=      5-min Rain = 0
KSGV 160345Z 10008G13KT 24/10 A2998 RMK A01 T02390097  RH  041%=      5-min Rain = 0
KSGV 160350Z 10009KT 24/10 A2998 RMK A01 T02380098  RH  042%=      5-min Rain = 0
KSGV 160355Z 11008G15KT 24/10 A2998 RMK A01 T02370100  RH  043%=      5-min Rain = 0
KSGV 160400Z 10010G16KT 24/10 A2998 RMK A01 T02370103  RH  044%=      5-min Rain = 0
KSGV 160405Z 11008G13KT 24/11 A2998 RMK A01 T02360107  RH  045%=      5-min Rain = 0
KSGV 160410Z 10009G14KT 24/11 A2999 RMK A01 T02350110  RH  046%=      5-min Rain = 0
KSGV 160415Z 10009G14KT 23/11 A2999 RMK A01 T02340114  RH  047%=      5-min Rain = 0
KSGV 160420Z 10009G15KT 23/12 A2999 RMK A01 T02340117  RH  049%=      5-min Rain = 0
KSGV 160425Z 10009G15KT 23/12 A2999 RMK A01 T02330117  RH  049%=      5-min Rain = 0
KSGV 160430Z 10010G16KT 23/12 A2999 RMK A01 T02330118  RH  049%=      5-min Rain = 0
KSGV 160435Z 11009KT 23/12 A2999 RMK A01 T02320119  RH  050%=      5-min Rain = 0
KSGV 160440Z 11009G15KT 23/12 A2999 RMK A01 T02320121  RH  051%=      5-min Rain = 0
KSGV 160445Z 11009G14KT 23/12 A2999 RMK A01 T02310122  RH  051%=      5-min Rain = 0
KSGV 160450Z 12010G16KT 23/12 A2999 RMK A01 T02290123  RH  052%=      5-min Rain = 0
KSGV 160455Z 12012G18KT 23/13 A2999 RMK A01 T02300126  RH  053%=      5-min Rain = 0

Page generated in 0.0222 seconds.